Time;durP1;ratioP1;P1;durP2;ratioP2;P2;SDS_P1;SDS_P2;PMS_P1;PMS_P2;Temp;Humidity;BMP_temperature;BMP_pressure;BME280_temperature;BME280_humidity;BME280_pressure;Samples;Min_cycle;Max_cycle;Signal;HPM_P1;HPM_P2
2023/10/12 00:01:59;;;;;;;5.22;2.33;;;;;;;;;;5158124;27;20460;-73
2023/10/12 00:04:53;;;;;;;5.50;2.67;;;;;;;;;;5143526;27;20023;-72
2023/10/12 00:07:42;;;;;;;8.25;2.60;;;;;;;;;;5156536;27;20018;-73
2023/10/12 00:10:40;;;;;;;3.55;2.50;;;;;;;;;;5157707;27;20022;-74
2023/10/12 00:13:29;;;;;;;4.68;2.70;;;;;;;;;;5143045;27;20115;-74
2023/10/12 00:16:18;;;;;;;3.38;2.58;;;;;;;;;;5164795;27;20018;-73
2023/10/12 00:19:11;;;;;;;5.82;2.47;;;;;;;;;;5158817;27;20023;-74
2023/10/12 00:22:00;;;;;;;5.55;2.50;;;;;;;;;;5142376;27;20019;-74
2023/10/12 00:24:45;;;;;;;4.82;2.60;;;;;;;;;;5156954;27;20098;-73
2023/10/12 00:27:33;;;;;;;5.38;2.55;;;;;;;;;;5141764;27;20021;-74
2023/10/12 00:30:19;;;;;;;3.58;2.50;;;;;;;;;;5156160;27;20101;-74
2023/10/12 00:33:08;;;;;;;5.85;2.53;;;;;;;;;;5157835;27;20015;-73
2023/10/12 00:35:59;;;;;;;3.83;2.22;;;;;;;;;;5156566;27;20023;-73
2023/10/12 00:38:46;;;;;;;10.25;2.55;;;;;;;;;;5155848;27;20015;-73
2023/10/12 00:41:35;;;;;;;4.82;2.53;;;;;;;;;;5155895;27;20033;-74
2023/10/12 00:44:26;;;;;;;7.35;2.53;;;;;;;;;;5155965;27;20029;-74
2023/10/12 00:47:29;;;;;;;4.47;2.40;;;;;;;;;;5157038;27;20367;-73
2023/10/12 00:50:16;;;;;;;7.22;2.78;;;;;;;;;;5155654;27;20380;-74
2023/10/12 00:56:06;;;;;;;12.85;4.07;;;;;;;;;;5156150;27;20449;-73
2023/10/12 00:58:55;;;;;;;6.22;2.50;;;;;;;;;;5155659;27;20042;-74
2023/10/12 01:01:40;;;;;;;3.40;2.40;;;;;;;;;;5155924;27;20313;-74
2023/10/12 01:04:27;;;;;;;4.18;2.40;;;;;;;;;;5141096;27;20018;-74
2023/10/12 01:07:19;;;;;;;5.25;2.53;;;;;;;;;;5154713;27;20042;-74
2023/10/12 01:10:06;;;;;;;3.80;2.13;;;;;;;;;;5140642;27;20132;-74
2023/10/12 01:12:56;;;;;;;4.93;2.60;;;;;;;;;;5155239;27;20045;-74
2023/10/12 01:15:46;;;;;;;3.78;2.40;;;;;;;;;;5155574;27;20027;-73
2023/10/12 01:18:33;;;;;;;4.95;2.95;;;;;;;;;;5156335;27;20044;-73
2023/10/12 01:21:20;;;;;;;6.47;2.40;;;;;;;;;;5155136;27;20022;-75
2023/10/12 01:24:12;;;;;;;4.00;3.03;;;;;;;;;;5155415;27;20027;-74
2023/10/12 01:26:59;;;;;;;3.15;2.10;;;;;;;;;;5154550;27;20168;-74
2023/10/12 01:29:46;;;;;;;4.15;2.80;;;;;;;;;;5154949;27;20051;-74
2023/10/12 01:32:36;;;;;;;4.68;2.33;;;;;;;;;;5155614;27;20027;-74
2023/10/12 01:35:33;;;;;;;6.15;2.28;;;;;;;;;;5154842;27;20006;-74
2023/10/12 01:38:21;;;;;;;3.60;2.42;;;;;;;;;;5155775;27;20042;-74
2023/10/12 01:41:09;;;;;;;3.80;2.13;;;;;;;;;;5154102;27;20356;-74
2023/10/12 01:43:55;;;;;;;4.65;2.50;;;;;;;;;;5155681;27;20033;-74
2023/10/12 01:46:41;;;;;;;3.72;2.13;;;;;;;;;;5155323;27;20057;-74
2023/10/12 01:49:26;;;;;;;4.65;2.28;;;;;;;;;;5154975;27;20130;-73
2023/10/12 01:52:12;;;;;;;4.80;2.45;;;;;;;;;;5154703;27;20019;-74
2023/10/12 01:54:58;;;;;;;4.45;2.30;;;;;;;;;;5154419;27;20021;-75
2023/10/12 01:57:47;;;;;;;4.88;2.53;;;;;;;;;;5155809;27;20033;-73
2023/10/12 02:00:42;;;;;;;5.32;2.38;;;;;;;;;;5156046;27;20444;-74
2023/10/12 02:06:16;;;;;;;3.42;2.03;;;;;;;;;;5155150;27;20127;-74
2023/10/12 02:09:11;;;;;;;5.15;2.38;;;;;;;;;;5154640;27;20023;-74
2023/10/12 02:11:58;;;;;;;3.47;2.38;;;;;;;;;;5140910;27;20106;-73
2023/10/12 02:14:43;;;;;;;6.85;2.50;;;;;;;;;;5155169;27;20027;-74
2023/10/12 02:17:29;;;;;;;5.78;2.58;;;;;;;;;;5154801;27;20023;-73
2023/10/12 02:20:14;;;;;;;3.80;2.17;;;;;;;;;;5154654;27;20110;-74
2023/10/12 02:23:04;;;;;;;5.05;2.40;;;;;;;;;;5154065;27;20018;-73
2023/10/12 02:25:52;;;;;;;3.53;2.22;;;;;;;;;;5140284;27;20428;-73
2023/10/12 02:28:38;;;;;;;13.85;3.22;;;;;;;;;;5158656;27;20026;-74
2023/10/12 02:31:28;;;;;;;8.48;2.90;;;;;;;;;;5158387;27;20431;-73
2023/10/12 02:34:16;;;;;;;6.47;2.72;;;;;;;;;;5158251;27;20026;-74
2023/10/12 02:39:54;;;;;;;2.70;2.10;;;;;;;;;;5158284;27;20033;-73
2023/10/12 02:42:41;;;;;;;4.22;2.60;;;;;;;;;;5143407;27;20386;-74
2023/10/12 02:45:33;;;;;;;9.77;2.92;;;;;;;;;;5159349;27;20091;-74
2023/10/12 02:48:23;;;;;;;4.78;2.78;;;;;;;;;;5158413;27;20360;-74
2023/10/12 02:51:14;;;;;;;5.38;3.03;;;;;;;;;;5158003;27;20064;-74
2023/10/12 02:54:03;;;;;;;4.85;2.70;;;;;;;;;;5159022;27;20019;-74
2023/10/12 02:56:49;;;;;;;6.20;2.40;;;;;;;;;;5158153;27;20103;-74
2023/10/12 02:59:38;;;;;;;3.67;2.70;;;;;;;;;;5159063;27;20052;-74
2023/10/12 03:02:32;;;;;;;4.55;2.42;;;;;;;;;;5144039;27;20042;-74
2023/10/12 03:05:18;;;;;;;5.50;2.67;;;;;;;;;;5157178;27;20079;-74
2023/10/12 03:08:06;;;;;;;3.67;2.38;;;;;;;;;;5158288;27;20110;-74
2023/10/12 03:11:09;;;;;;;4.32;2.30;;;;;;;;;;5157644;27;20023;-74
2023/10/12 03:14:00;;;;;;;6.15;2.63;;;;;;;;;;5157813;27;20037;-74
2023/10/12 03:16:47;;;;;;;4.57;2.50;;;;;;;;;;5158673;27;20018;-73
2023/10/12 03:19:39;;;;;;;5.85;2.63;;;;;;;;;;5158558;27;20026;-74
2023/10/12 03:22:34;;;;;;;4.47;2.72;;;;;;;;;;5142801;27;20027;-74
2023/10/12 03:25:20;;;;;;;4.50;2.85;;;;;;;;;;5157107;27;20097;-74
2023/10/12 03:28:13;;;;;;;6.00;2.80;;;;;;;;;;5157114;27;20019;-74
2023/10/12 03:34:16;;;;;;;7.25;2.85;;;;;;;;;;5157800;27;20436;-74
2023/10/12 03:37:03;;;;;;;5.68;3.13;;;;;;;;;;5157539;27;20036;-74
2023/10/12 03:40:08;;;;;;;3.73;2.40;;;;;;;;;;5156204;27;20022;-74
2023/10/12 03:42:56;;;;;;;7.03;3.47;;;;;;;;;;5157458;27;20432;-73
2023/10/12 03:46:46;;;;;;;7.45;3.63;;;;;;;;;;5158219;27;20499;-72
2023/10/12 03:49:07;;;;;;;4.30;2.63;;;;;;;;;;5151482;27;20487;-73
2023/10/12 03:51:58;;;;;;;5.78;2.83;;;;;;;;;;5157200;27;20424;-74
2023/10/12 03:55:29;;;;;;;4.57;2.42;;;;;;;;;;5156661;27;20023;-74
2023/10/12 03:58:07;;;;;;;5.72;2.95;;;;;;;;;;5155432;27;20034;-74
2023/10/12 04:04:35;;;;;;;4.18;2.30;;;;;;;;;;5140742;27;20358;-74
2023/10/12 04:07:37;;;;;;;6.95;2.85;;;;;;;;;;5156701;27;20397;-74
2023/10/12 04:19:06;;;;;;;4.32;2.78;;;;;;;;;;5155534;27;20022;-74
2023/10/12 04:24:56;;;;;;;5.28;2.70;;;;;;;;;;5156901;27;20058;-74
2023/10/12 04:27:50;;;;;;;6.72;2.70;;;;;;;;;;5155749;27;20034;-74
2023/10/12 04:33:44;;;;;;;7.13;2.70;;;;;;;;;;5156243;27;20083;-70
2023/10/12 04:36:45;;;;;;;5.95;3.03;;;;;;;;;;5156355;27;20348;-71
2023/10/12 04:39:36;;;;;;;5.90;3.22;;;;;;;;;;5141931;27;20086;-71
2023/10/12 04:42:33;;;;;;;9.02;3.35;;;;;;;;;;5141508;27;20018;-70
2023/10/12 04:48:09;;;;;;;11.43;3.38;;;;;;;;;;5156201;27;20026;-71
2023/10/12 04:50:59;;;;;;;6.63;3.10;;;;;;;;;;5155808;27;20035;-71
2023/10/12 04:53:58;;;;;;;7.22;3.08;;;;;;;;;;5156624;27;20023;-71
2023/10/12 05:03:33;;;;;;;10.10;3.30;;;;;;;;;;5153049;27;20113;-72
2023/10/12 05:06:24;;;;;;;8.57;4.97;;;;;;;;;;5155664;27;20027;-71
2023/10/12 05:09:12;;;;;;;12.32;4.25;;;;;;;;;;5155357;27;20007;-72
2023/10/12 05:11:57;;;;;;;8.65;4.35;;;;;;;;;;5156371;27;20499;-71
2023/10/12 05:14:43;;;;;;;11.20;6.03;;;;;;;;;;5155817;27;20065;-72
2023/10/12 05:17:29;;;;;;;8.82;5.18;;;;;;;;;;5155023;27;20107;-71
2023/10/12 05:20:18;;;;;;;15.10;5.55;;;;;;;;;;5155388;27;20029;-71
2023/10/12 05:23:04;;;;;;;10.15;5.38;;;;;;;;;;5156500;27;20064;-70
2023/10/12 05:28:37;;;;;;;7.40;3.75;;;;;;;;;;5155251;27;20026;-71
2023/10/12 05:31:27;;;;;;;7.20;3.67;;;;;;;;;;5141473;27;20018;-71
2023/10/12 05:34:32;;;;;;;14.23;3.78;;;;;;;;;;5154614;27;20028;-71
2023/10/12 05:37:26;;;;;;;9.93;3.53;;;;;;;;;;5155971;27;20030;-71
2023/10/12 05:40:14;;;;;;;9.57;3.20;;;;;;;;;;5154873;27;20027;-71
2023/10/12 05:42:59;;;;;;;5.90;3.30;;;;;;;;;;5155078;27;20023;-72
2023/10/12 05:45:45;;;;;;;7.13;3.42;;;;;;;;;;5139777;27;20019;-71
2023/10/12 05:48:33;;;;;;;9.85;3.22;;;;;;;;;;5140297;27;20114;-71
2023/10/12 05:51:21;;;;;;;7.78;3.35;;;;;;;;;;5154870;27;20033;-71
2023/10/12 05:54:07;;;;;;;8.88;3.20;;;;;;;;;;5154812;27;20462;-70
2023/10/12 05:56:53;;;;;;;7.82;3.25;;;;;;;;;;5155240;27;20026;-71
2023/10/12 05:59:38;;;;;;;7.72;3.00;;;;;;;;;;5154281;27;20163;-70
2023/10/12 06:02:28;;;;;;;10.13;3.97;;;;;;;;;;5158740;27;20091;-71
2023/10/12 06:05:15;;;;;;;6.60;2.88;;;;;;;;;;5159293;27;20011;-71
2023/10/12 06:08:00;;;;;;;6.65;2.90;;;;;;;;;;5144560;27;20022;-71
2023/10/12 06:10:46;;;;;;;6.60;2.90;;;;;;;;;;5158560;27;20456;-71
2023/10/12 06:13:32;;;;;;;5.45;3.10;;;;;;;;;;5144731;27;20424;-71
2023/10/12 06:16:20;;;;;;;5.28;3.30;;;;;;;;;;5159505;27;20076;-71
2023/10/12 06:19:22;;;;;;;5.53;3.47;;;;;;;;;;5145180;27;20106;-71
2023/10/12 06:22:13;;;;;;;11.45;4.30;;;;;;;;;;5158763;27;20088;-70
2023/10/12 06:25:10;;;;;;;12.95;6.95;;;;;;;;;;5158358;27;20402;-70
2023/10/12 06:27:55;;;;;;;8.57;4.90;;;;;;;;;;5159026;27;20079;-72
2023/10/12 06:30:41;;;;;;;8.77;4.22;;;;;;;;;;5144253;27;20048;-71
2023/10/12 06:33:27;;;;;;;10.85;4.63;;;;;;;;;;5143284;27;20033;-70
2023/10/12 06:36:16;;;;;;;8.10;4.88;;;;;;;;;;5158428;27;20030;-70
2023/10/12 06:42:09;;;;;;;8.82;4.57;;;;;;;;;;5158142;27;20041;-72
2023/10/12 06:44:55;;;;;;;10.85;4.72;;;;;;;;;;5158497;27;20048;-72
2023/10/12 06:47:44;;;;;;;10.35;4.40;;;;;;;;;;5158067;27;20015;-71
2023/10/12 06:50:34;;;;;;;6.05;3.85;;;;;;;;;;5157302;27;20046;-70
2023/10/12 06:53:24;;;;;;;6.53;3.40;;;;;;;;;;5143419;27;20378;-71
2023/10/12 06:59:13;;;;;;;9.38;3.53;;;;;;;;;;5158368;27;20015;-71
2023/10/12 07:02:24;;;;;;;7.03;3.13;;;;;;;;;;5158031;27;20033;-70
2023/10/12 07:05:05;;;;;;;12.55;3.38;;;;;;;;;;5157805;27;20459;-70
2023/10/12 07:07:51;;;;;;;9.77;3.45;;;;;;;;;;5144211;27;20105;-71
2023/10/12 07:10:47;;;;;;;6.97;3.40;;;;;;;;;;5142855;27;20038;-71
2023/10/12 07:13:39;;;;;;;9.43;3.38;;;;;;;;;;5142943;27;20038;-70
2023/10/12 07:16:29;;;;;;;6.40;3.28;;;;;;;;;;5157750;27;20356;-71
2023/10/12 07:19:15;;;;;;;11.45;3.63;;;;;;;;;;5158062;27;20023;-71
2023/10/12 07:22:01;;;;;;;10.35;3.70;;;;;;;;;;5143307;27;20094;-71
2023/10/12 07:24:54;;;;;;;7.82;3.70;;;;;;;;;;5143235;27;20041;-71
2023/10/12 07:27:50;;;;;;;7.20;3.00;;;;;;;;;;5157210;27;20381;-71
2023/10/12 07:30:42;;;;;;;7.90;3.72;;;;;;;;;;5143016;27;20042;-71
2023/10/12 07:33:30;;;;;;;9.20;3.30;;;;;;;;;;5158132;27;20467;-71
2023/10/12 07:36:17;;;;;;;9.15;3.08;;;;;;;;;;5158567;27;20026;-71
2023/10/12 07:42:05;;;;;;;11.10;3.40;;;;;;;;;;5157079;27;20037;-73
2023/10/12 07:44:54;;;;;;;15.55;4.32;;;;;;;;;;5143739;27;20023;-72
2023/10/12 07:47:45;;;;;;;14.50;4.60;;;;;;;;;;5142998;27;20109;-70
2023/10/12 07:50:37;;;;;;;21.40;7.38;;;;;;;;;;5157314;27;20053;-73
2023/10/12 07:53:23;;;;;;;17.13;7.47;;;;;;;;;;5157472;27;20023;-72
2023/10/12 07:56:15;;;;;;;9.07;3.72;;;;;;;;;;5157893;27;20018;-70
2023/10/12 07:59:01;;;;;;;13.60;4.22;;;;;;;;;;5156531;27;20019;-69
2023/10/12 08:01:50;;;;;;;18.83;5.15;;;;;;;;;;5142451;27;20014;-69
2023/10/12 08:04:39;;;;;;;12.43;4.10;;;;;;;;;;5140908;27;20029;-69
2023/10/12 08:07:26;;;;;;;14.82;3.70;;;;;;;;;;5157627;27;20025;-69
2023/10/12 08:10:15;;;;;;;10.77;3.42;;;;;;;;;;5156670;27;20055;-68
2023/10/12 08:13:04;;;;;;;14.32;4.22;;;;;;;;;;5156708;27;20394;-69
2023/10/12 08:22:02;;;;;;;8.57;3.03;;;;;;;;;;5130975;27;20139;-71
2023/10/12 08:24:49;;;;;;;8.88;3.20;;;;;;;;;;5143765;27;20386;-70
2023/10/12 08:27:53;;;;;;;7.00;3.85;;;;;;;;;;5156598;27;20015;-72
2023/10/12 08:30:48;;;;;;;8.93;4.60;;;;;;;;;;5156355;27;20356;-74
2023/10/12 08:33:49;;;;;;;11.43;2.90;;;;;;;;;;5157210;27;20444;-76
2023/10/12 08:36:54;;;;;;;9.32;3.28;;;;;;;;;;5157895;27;20019;-74
2023/10/12 08:39:50;;;;;;;13.02;3.25;;;;;;;;;;5157740;27;20022;-74
2023/10/12 08:42:55;;;;;;;12.07;3.38;;;;;;;;;;5142869;27;20038;-77
2023/10/12 08:45:42;;;;;;;7.47;3.15;;;;;;;;;;5141619;27;20019;-75
2023/10/12 08:48:34;;;;;;;5.32;2.50;;;;;;;;;;5155228;27;20023;-76
2023/10/12 08:51:29;;;;;;;8.32;2.83;;;;;;;;;;5156734;27;20122;-77
2023/10/12 08:54:16;;;;;;;7.55;2.88;;;;;;;;;;5142347;27;20046;-78
2023/10/12 08:57:09;;;;;;;6.35;2.67;;;;;;;;;;5155352;27;20057;-76
2023/10/12 09:00:20;;;;;;;6.88;3.63;;;;;;;;;;5155475;27;20015;-77
2023/10/12 09:06:07;;;;;;;5.65;2.65;;;;;;;;;;5156209;27;20018;-74
2023/10/12 09:08:56;;;;;;;7.97;3.10;;;;;;;;;;5140841;27;20022;-73
2023/10/12 09:11:44;;;;;;;5.75;2.70;;;;;;;;;;5157659;27;20033;-73
2023/10/12 09:14:32;;;;;;;10.70;3.60;;;;;;;;;;5143086;27;20428;-74
2023/10/12 09:17:27;;;;;;;6.60;3.58;;;;;;;;;;5156912;27;20440;-74
2023/10/12 09:20:28;;;;;;;7.25;2.78;;;;;;;;;;5158749;27;20033;-74
2023/10/12 09:23:15;;;;;;;6.15;2.80;;;;;;;;;;5160409;27;20033;-75
2023/10/12 09:29:12;;;;;;;9.02;2.95;;;;;;;;;;5158665;27;20018;-77
2023/10/12 09:35:14;;;;;;;4.68;2.67;;;;;;;;;;5156133;27;20015;-75
2023/10/12 09:38:01;;;;;;;4.53;2.90;;;;;;;;;;5156366;27;20428;-79
2023/10/12 09:40:52;;;;;;;6.40;2.50;;;;;;;;;;5141727;27;20389;-76
2023/10/12 09:43:39;;;;;;;5.65;2.70;;;;;;;;;;5157486;27;20454;-75
2023/10/12 09:46:27;;;;;;;7.18;2.80;;;;;;;;;;5156270;27;20102;-75
2023/10/12 09:49:22;;;;;;;5.70;2.67;;;;;;;;;;5157865;27;20046;-74
2023/10/12 09:52:13;;;;;;;5.35;3.05;;;;;;;;;;5143933;27;20091;-82
2023/10/12 09:55:14;;;;;;;9.85;3.30;;;;;;;;;;5144091;27;20079;-82
2023/10/12 09:58:12;;;;;;;7.03;3.45;;;;;;;;;;5157734;27;20131;-80
2023/10/12 10:01:15;;;;;;;4.03;2.50;;;;;;;;;;5146859;27;20015;-80
2023/10/12 10:04:27;;;;;;;14.00;2.80;;;;;;;;;;5159018;27;20014;-81
2023/10/12 10:07:36;;;;;;;7.38;3.13;;;;;;;;;;5160153;27;20110;-81
2023/10/12 10:10:33;;;;;;;6.65;3.10;;;;;;;;;;5159519;27;20018;-80
2023/10/12 10:13:46;;;;;;;7.03;3.13;;;;;;;;;;5157194;27;20473;-81
2023/10/12 10:16:46;;;;;;;4.90;2.80;;;;;;;;;;5142187;27;20026;-82
2023/10/12 10:19:32;;;;;;;6.47;3.00;;;;;;;;;;5143321;27;20015;-82
2023/10/12 10:22:18;;;;;;;4.53;2.95;;;;;;;;;;5156203;27;20026;-82
2023/10/12 10:25:06;;;;;;;13.23;3.90;;;;;;;;;;5155210;27;20086;-82
2023/10/12 10:27:56;;;;;;;7.78;4.22;;;;;;;;;;5158629;27;20030;-81
2023/10/12 10:30:42;;;;;;;7.55;3.15;;;;;;;;;;5160338;27;20019;-81
2023/10/12 10:33:29;;;;;;;4.60;3.20;;;;;;;;;;5146704;27;20046;-81
2023/10/12 10:36:24;;;;;;;6.20;2.80;;;;;;;;;;5141963;27;20023;-78
2023/10/12 10:42:04;;;;;;;5.03;2.85;;;;;;;;;;5155574;27;20029;-79
2023/10/12 10:44:52;;;;;;;4.38;2.55;;;;;;;;;;5154126;27;20023;-79
2023/10/12 10:47:42;;;;;;;6.45;2.70;;;;;;;;;;5141415;27;20014;-78
2023/10/12 10:50:28;;;;;;;4.65;2.65;;;;;;;;;;5143290;27;20054;-81
2023/10/12 10:53:15;;;;;;;20.70;3.90;;;;;;;;;;5144355;27;20029;-81
2023/10/12 10:56:05;;;;;;;8.30;2.67;;;;;;;;;;5144061;27;20058;-80
2023/10/12 10:58:54;;;;;;;8.48;2.92;;;;;;;;;;5158419;27;20022;-79
2023/10/12 11:01:46;;;;;;;5.88;3.40;;;;;;;;;;5144262;27;20360;-82
2023/10/12 11:07:27;;;;;;;5.93;2.92;;;;;;;;;;5158996;27;20321;-82
2023/10/12 11:10:19;;;;;;;8.00;3.65;;;;;;;;;;5146986;27;20022;-78
2023/10/12 11:13:17;;;;;;;5.85;2.92;;;;;;;;;;5144785;27;20015;-74
2023/10/12 11:16:20;;;;;;;5.80;2.88;;;;;;;;;;5157631;27;20010;-74
2023/10/12 11:19:09;;;;;;;5.22;2.88;;;;;;;;;;5157996;27;20500;-74
2023/10/12 11:21:57;;;;;;;5.93;2.78;;;;;;;;;;5157884;27;20034;-72
2023/10/12 11:24:48;;;;;;;3.55;2.63;;;;;;;;;;5158564;27;20051;-72
2023/10/12 11:27:35;;;;;;;4.93;2.70;;;;;;;;;;5157708;27;20023;-72
2023/10/12 11:30:30;;;;;;;10.38;2.90;;;;;;;;;;5157935;27;20019;-72
2023/10/12 11:33:20;;;;;;;8.07;3.40;;;;;;;;;;5157600;27;20083;-71
2023/10/12 11:36:17;;;;;;;7.28;4.15;;;;;;;;;;5156868;27;20064;-72
2023/10/12 11:39:03;;;;;;;3.50;2.78;;;;;;;;;;5157314;27;20010;-69
2023/10/12 11:42:09;;;;;;;4.40;2.58;;;;;;;;;;5157632;27;20031;-68
2023/10/12 11:44:55;;;;;;;7.32;2.97;;;;;;;;;;5157355;27;20015;-70
2023/10/12 11:47:41;;;;;;;5.40;2.70;;;;;;;;;;5157541;27;20026;-70
2023/10/12 11:50:32;;;;;;;4.82;2.65;;;;;;;;;;5157556;27;20043;-72
2023/10/12 11:53:18;;;;;;;4.68;2.90;;;;;;;;;;5143632;27;20034;-73
2023/10/12 11:56:13;;;;;;;5.38;3.35;;;;;;;;;;5143229;27;20022;-79
2023/10/12 11:58:59;;;;;;;5.72;3.42;;;;;;;;;;5145291;27;20046;-78
2023/10/12 12:01:45;;;;;;;6.45;3.30;;;;;;;;;;5144202;27;20042;-81
2023/10/12 12:04:33;;;;;;;6.25;3.13;;;;;;;;;;5144133;27;20105;-79
2023/10/12 12:07:20;;;;;;;6.13;2.78;;;;;;;;;;5163005;27;20022;-80
2023/10/12 12:10:07;;;;;;;8.38;3.00;;;;;;;;;;5146197;27;20083;-76
2023/10/12 12:12:53;;;;;;;6.03;3.45;;;;;;;;;;5158680;27;20014;-73
2023/10/12 12:15:44;;;;;;;4.82;3.30;;;;;;;;;;5173258;27;20183;-74
2023/10/12 12:18:32;;;;;;;5.15;3.38;;;;;;;;;;5162081;27;20022;-74
2023/10/12 12:21:29;;;;;;;8.88;3.38;;;;;;;;;;5168628;27;20032;-74
2023/10/12 12:24:24;;;;;;;5.80;3.30;;;;;;;;;;5189857;27;20106;-75
2023/10/12 12:27:37;;;;;;;9.45;5.45;;;;;;;;;;5188428;27;20015;-75
2023/10/12 12:30:33;;;;;;;8.38;3.75;;;;;;;;;;5187560;27;20417;-76
2023/10/12 12:33:19;;;;;;;8.65;3.90;;;;;;;;;;5174371;27;20010;-74
2023/10/12 12:36:10;;;;;;;5.95;3.80;;;;;;;;;;5175697;27;20011;-77
2023/10/12 12:39:00;;;;;;;5.93;3.13;;;;;;;;;;5195429;27;20014;-76
2023/10/12 12:41:46;;;;;;;8.45;3.10;;;;;;;;;;5187808;27;20513;-76
2023/10/12 12:44:31;;;;;;;6.47;3.00;;;;;;;;;;5177332;27;20022;-76
2023/10/12 12:47:17;;;;;;;3.55;2.63;;;;;;;;;;5177264;27;20143;-76
2023/10/12 12:50:03;;;;;;;5.65;2.85;;;;;;;;;;5160825;27;20179;-73
2023/10/12 12:52:49;;;;;;;6.65;3.03;;;;;;;;;;5161485;27;20026;-71
2023/10/12 12:55:38;;;;;;;8.70;3.38;;;;;;;;;;5176522;27;20032;-70
2023/10/12 12:58:24;;;;;;;8.43;3.75;;;;;;;;;;5162059;27;20022;-72
2023/10/12 13:01:10;;;;;;;4.45;3.65;;;;;;;;;;5175618;27;20026;-71
2023/10/12 13:03:56;;;;;;;6.85;3.28;;;;;;;;;;5175239;27;20408;-70
2023/10/12 13:06:41;;;;;;;5.80;3.53;;;;;;;;;;5161403;27;20083;-70
2023/10/12 13:09:30;;;;;;;6.45;3.17;;;;;;;;;;5149458;27;20043;-71
2023/10/12 13:12:15;;;;;;;9.50;3.33;;;;;;;;;;5155551;27;20431;-68
2023/10/12 13:15:01;;;;;;;5.72;3.20;;;;;;;;;;5156909;27;20026;-69
2023/10/12 13:17:47;;;;;;;10.98;3.30;;;;;;;;;;5140650;27;20022;-68
2023/10/12 13:20:33;;;;;;;4.05;3.25;;;;;;;;;;5141224;27;20019;-69
2023/10/12 13:23:21;;;;;;;7.85;3.50;;;;;;;;;;5140748;27;20007;-69
2023/10/12 13:26:07;;;;;;;8.45;3.35;;;;;;;;;;5155911;27;20029;-70
2023/10/12 13:28:53;;;;;;;7.80;3.88;;;;;;;;;;5141385;27;20011;-70
2023/10/12 13:31:39;;;;;;;6.28;3.33;;;;;;;;;;5140659;27;20022;-70
2023/10/12 13:34:24;;;;;;;6.03;3.42;;;;;;;;;;5155874;27;20023;-69
2023/10/12 13:37:13;;;;;;;6.95;4.15;;;;;;;;;;5156411;27;20022;-70
2023/10/12 13:39:58;;;;;;;6.65;3.28;;;;;;;;;;5155903;27;20029;-68
2023/10/12 13:42:44;;;;;;;4.45;3.40;;;;;;;;;;5157847;27;20018;-70
2023/10/12 13:45:30;;;;;;;5.70;3.50;;;;;;;;;;5163040;27;20022;-72
2023/10/12 13:48:18;;;;;;;6.22;3.78;;;;;;;;;;5163309;27;20503;-73
2023/10/12 13:51:04;;;;;;;9.00;4.35;;;;;;;;;;5168149;27;20031;-72
2023/10/12 13:53:51;;;;;;;6.22;3.80;;;;;;;;;;5166367;27;20147;-73
2023/10/12 13:56:37;;;;;;;5.65;4.53;;;;;;;;;;5140866;27;20029;-73
2023/10/12 13:59:24;;;;;;;7.65;4.00;;;;;;;;;;5155678;27;20553;-74
2023/10/12 14:02:12;;;;;;;7.13;4.30;;;;;;;;;;5155664;27;20027;-72
2023/10/12 14:04:58;;;;;;;5.55;4.05;;;;;;;;;;5140581;27;20098;-73
2023/10/12 14:07:44;;;;;;;5.50;3.28;;;;;;;;;;5155405;27;20361;-72
2023/10/12 14:10:32;;;;;;;11.68;3.58;;;;;;;;;;5175211;27;20019;-72
2023/10/12 14:13:18;;;;;;;6.18;3.80;;;;;;;;;;5160288;27;20045;-72
2023/10/12 14:16:06;;;;;;;8.15;3.03;;;;;;;;;;5175139;27;20015;-74
2023/10/12 14:18:54;;;;;;;8.88;3.60;;;;;;;;;;5174407;27;20116;-72
2023/10/12 14:21:39;;;;;;;8.23;3.65;;;;;;;;;;5160998;27;20444;-73
2023/10/12 14:24:27;;;;;;;8.70;3.67;;;;;;;;;;5180303;27;20458;-73
2023/10/12 14:27:13;;;;;;;9.13;3.40;;;;;;;;;;5179183;27;20046;-74
2023/10/12 14:30:09;;;;;;;5.18;3.00;;;;;;;;;;5163098;27;20014;-74
2023/10/12 14:32:55;;;;;;;12.02;3.50;;;;;;;;;;5165085;27;20420;-72
2023/10/12 14:35:42;;;;;;;11.18;3.65;;;;;;;;;;5179431;27;20363;-73
2023/10/12 14:38:32;;;;;;;6.30;3.38;;;;;;;;;;5164704;27;20026;-71
2023/10/12 14:41:18;;;;;;;22.20;4.75;;;;;;;;;;5177846;27;20134;-71
2023/10/12 14:44:03;;;;;;;13.10;4.25;;;;;;;;;;5179249;27;20415;-73
2023/10/12 14:46:50;;;;;;;15.25;5.00;;;;;;;;;;5178984;27;20371;-75
2023/10/12 14:49:36;;;;;;;9.82;4.45;;;;;;;;;;5179238;27;20352;-72
2023/10/12 14:52:23;;;;;;;9.85;4.25;;;;;;;;;;5179561;27;20057;-71
2023/10/12 14:55:12;;;;;;;21.30;5.45;;;;;;;;;;5178088;27;20450;-72
2023/10/12 14:57:57;;;;;;;26.40;5.88;;;;;;;;;;5177995;27;20018;-72
2023/10/12 15:00:46;;;;;;;16.92;5.85;;;;;;;;;;5178278;27;20105;-72
2023/10/12 15:03:34;;;;;;;16.15;5.25;;;;;;;;;;5178604;27;20025;-72
2023/10/12 15:06:20;;;;;;;15.18;5.75;;;;;;;;;;5178679;27;20018;-72
2023/10/12 15:09:11;;;;;;;12.05;5.63;;;;;;;;;;5178659;27;20329;-72
2023/10/12 15:11:57;;;;;;;13.48;5.70;;;;;;;;;;5177918;27;20014;-71
2023/10/12 15:14:47;;;;;;;15.38;5.32;;;;;;;;;;5179103;27;20029;-70
2023/10/12 15:17:32;;;;;;;16.30;5.05;;;;;;;;;;5177104;27;20022;-70
2023/10/12 15:20:18;;;;;;;11.45;5.60;;;;;;;;;;5178678;27;20026;-70
2023/10/12 15:23:04;;;;;;;9.85;4.97;;;;;;;;;;5173249;27;20062;-69
2023/10/12 15:25:56;;;;;;;10.40;5.18;;;;;;;;;;5176574;27;20011;-70
2023/10/12 15:28:47;;;;;;;14.82;5.97;;;;;;;;;;5178979;27;20301;-72
2023/10/12 15:31:33;;;;;;;25.52;6.22;;;;;;;;;;5164683;27;20026;-78
2023/10/12 15:34:19;;;;;;;16.85;6.18;;;;;;;;;;5163071;27;20033;-74
2023/10/12 15:37:05;;;;;;;16.10;6.07;;;;;;;;;;5178870;27;20022;-73
2023/10/12 15:39:51;;;;;;;15.90;5.88;;;;;;;;;;5177422;27;20087;-71
2023/10/12 15:42:37;;;;;;;22.90;6.82;;;;;;;;;;5157936;27;20026;-71
2023/10/12 15:45:26;;;;;;;24.17;7.18;;;;;;;;;;5157320;27;20075;-71
2023/10/12 15:48:13;;;;;;;17.38;7.95;;;;;;;;;;5156315;27;20462;-73
2023/10/12 15:51:00;;;;;;;21.70;10.63;;;;;;;;;;5157212;27;20380;-70
2023/10/12 15:53:46;;;;;;;26.98;12.70;;;;;;;;;;5142258;27;20127;-76
2023/10/12 15:56:32;;;;;;;30.73;13.50;;;;;;;;;;5157171;27;20095;-75
2023/10/12 15:59:20;;;;;;;19.20;11.13;;;;;;;;;;5142893;27;20055;-73
2023/10/12 16:02:07;;;;;;;27.05;11.18;;;;;;;;;;5156577;27;20027;-69
2023/10/12 16:04:53;;;;;;;24.98;11.68;;;;;;;;;;5156402;27;20019;-73
2023/10/12 16:07:40;;;;;;;23.13;13.02;;;;;;;;;;5157351;27;20079;-72
2023/10/12 16:10:27;;;;;;;25.25;12.38;;;;;;;;;;5156854;27;20022;-72
2023/10/12 16:13:14;;;;;;;32.85;12.57;;;;;;;;;;5157383;27;20046;-72
2023/10/12 16:16:12;;;;;;;29.48;12.35;;;;;;;;;;5157188;27;20039;-72
2023/10/12 16:18:58;;;;;;;28.30;12.95;;;;;;;;;;5176329;27;20139;-73
2023/10/12 16:21:44;;;;;;;30.98;13.25;;;;;;;;;;5177818;27;20120;-69
2023/10/12 16:24:30;;;;;;;30.75;14.68;;;;;;;;;;5177197;27;20021;-69
2023/10/12 16:27:17;;;;;;;47.05;17.08;;;;;;;;;;5177710;27;20036;-70
2023/10/12 16:30:04;;;;;;;37.75;16.08;;;;;;;;;;5162047;27;20015;-71
2023/10/12 16:32:50;;;;;;;39.58;15.77;;;;;;;;;;5176455;27;20030;-71
2023/10/12 16:35:36;;;;;;;43.40;15.35;;;;;;;;;;5176574;27;20022;-71
2023/10/12 16:38:22;;;;;;;48.22;16.92;;;;;;;;;;5176391;27;20368;-72
2023/10/12 16:41:08;;;;;;;52.45;15.88;;;;;;;;;;5176625;27;20026;-71
2023/10/12 16:43:54;;;;;;;38.92;16.02;;;;;;;;;;5176939;27;20355;-71
2023/10/12 16:46:40;;;;;;;46.67;17.08;;;;;;;;;;5176012;27;20029;-71
2023/10/12 16:49:27;;;;;;;103.75;45.42;;;;;;;;;;5162319;27;20042;-71
2023/10/12 16:52:15;;;;;;;58.20;24.77;;;;;;;;;;5161563;27;20404;-72
2023/10/12 16:55:01;;;;;;;48.92;18.20;;;;;;;;;;5177127;27;20018;-72
2023/10/12 16:57:46;;;;;;;43.28;17.33;;;;;;;;;;5176779;27;20544;-71
2023/10/12 17:00:32;;;;;;;43.42;17.33;;;;;;;;;;5176398;27;20428;-72
2023/10/12 17:03:18;;;;;;;41.55;17.33;;;;;;;;;;5176334;27;20351;-75
2023/10/12 17:06:05;;;;;;;45.35;17.38;;;;;;;;;;5176578;27;20455;-76
2023/10/12 17:08:52;;;;;;;59.97;18.35;;;;;;;;;;5176049;27;20507;-76
2023/10/12 17:11:38;;;;;;;60.15;19.05;;;;;;;;;;5161871;27;20026;-76
2023/10/12 17:14:24;;;;;;;50.13;18.95;;;;;;;;;;5176097;27;20014;-77
2023/10/12 17:17:10;;;;;;;59.83;20.13;;;;;;;;;;5176573;27;20029;-77
2023/10/12 17:19:57;;;;;;;49.67;19.63;;;;;;;;;;5176552;27;20018;-76
2023/10/12 17:22:42;;;;;;;64.63;20.85;;;;;;;;;;5178013;27;20018;-77
2023/10/12 17:25:28;;;;;;;51.05;19.40;;;;;;;;;;5176977;27;20029;-76
2023/10/12 17:28:13;;;;;;;49.25;18.17;;;;;;;;;;5175894;27;20023;-73
2023/10/12 17:31:05;;;;;;;72.57;30.48;;;;;;;;;;5176787;27;20074;-70
2023/10/12 17:33:50;;;;;;;63.83;21.70;;;;;;;;;;5176864;27;20022;-74
2023/10/12 17:36:36;;;;;;;48.42;18.60;;;;;;;;;;5175634;27;20025;-73
2023/10/12 17:39:27;;;;;;;49.47;17.80;;;;;;;;;;5162195;27;20463;-72
2023/10/12 17:42:13;;;;;;;48.17;19.10;;;;;;;;;;5176328;27;20101;-69
2023/10/12 17:44:59;;;;;;;48.45;20.40;;;;;;;;;;5161748;27;20037;-71
2023/10/12 17:47:46;;;;;;;49.65;20.15;;;;;;;;;;5176436;27;20018;-73
2023/10/12 17:50:34;;;;;;;52.78;20.25;;;;;;;;;;5134397;27;20058;-70
2023/10/12 17:53:19;;;;;;;50.33;20.45;;;;;;;;;;5135202;28;20098;-72
2023/10/12 17:56:15;;;;;;;54.25;20.48;;;;;;;;;;5135259;27;20088;-73
2023/10/12 17:59:01;;;;;;;61.55;21.10;;;;;;;;;;5140427;27;20023;-73
2023/10/12 18:01:47;;;;;;;52.90;20.35;;;;;;;;;;5139405;27;20049;-71